Time;durP1;ratioP1;P1;durP2;ratioP2;P2;SDS_P1;SDS_P2;PMS_P1;PMS_P2;Temp;Humidity;BMP_temperature;BMP_pressure;BME280_temperature;BME280_humidity;BME280_pressure;Samples;Min_cycle;Max_cycle;Signal;HPM_P1;HPM_P2
2021/09/11 00:02:26;;;;;;;6.03;2.78;;;;;;;29.54;19.12;94688.91;5057970;28;20440;-58
2021/09/11 00:04:53;;;;;;;5.03;2.88;;;;;;;29.81;18.72;94691.69;5057569;28;20060;-53
2021/09/11 00:07:21;;;;;;;4.68;2.88;;;;;;;29.70;19.01;94696.44;5057981;28;20056;-57
2021/09/11 00:09:48;;;;;;;4.20;2.83;;;;;;;29.83;18.84;94686.69;5057744;28;20475;-52
2021/09/11 00:12:15;;;;;;;3.03;2.72;;;;;;;29.80;18.99;94690.19;5057884;28;20325;-54
2021/09/11 00:14:42;;;;;;;3.35;2.67;;;;;;;29.72;19.16;94684.09;5056832;28;20368;-56
2021/09/11 00:17:09;;;;;;;5.47;2.80;;;;;;;29.62;19.32;94687.66;5056845;28;20056;-55
2021/09/11 00:19:38;;;;;;;6.97;3.03;;;;;;;29.56;19.36;94688.50;5058110;28;20056;-57
2021/09/11 00:22:05;;;;;;;3.70;2.90;;;;;;;29.61;19.26;94693.44;5056721;28;20059;-54
2021/09/11 00:24:32;;;;;;;5.35;3.25;;;;;;;29.55;19.24;94695.06;5057187;28;20060;-56
2021/09/11 00:26:59;;;;;;;5.13;2.83;;;;;;;29.56;18.88;94691.94;5057824;28;20041;-55
2021/09/11 00:29:26;;;;;;;4.75;3.15;;;;;;;29.56;19.21;94700.03;5052895;28;20049;-54
2021/09/11 00:31:53;;;;;;;4.72;3.20;;;;;;;29.41;19.43;94695.94;5037659;28;20048;-56
2021/09/11 00:34:20;;;;;;;4.38;3.28;;;;;;;29.34;19.76;94702.13;5050550;28;20491;-57
2021/09/11 00:36:48;;;;;;;5.00;3.42;;;;;;;29.37;19.65;94701.31;5057402;28;20045;-57
2021/09/11 00:39:15;;;;;;;7.40;3.42;;;;;;;29.15;19.73;94700.00;5057709;28;20063;-54
2021/09/11 00:41:42;;;;;;;4.50;3.60;;;;;;;29.42;19.71;94697.47;5057103;28;20056;-56
2021/09/11 00:44:10;;;;;;;4.55;3.35;;;;;;;29.27;19.72;94694.13;5055381;28;20049;-56
2021/09/11 00:46:37;;;;;;;5.30;3.65;;;;;;;29.13;19.82;94694.22;5057135;28;20053;-59
2021/09/11 00:49:04;;;;;;;3.90;3.45;;;;;;;29.14;19.88;94695.75;5056982;28;20060;-55
2021/09/11 00:51:31;;;;;;;3.75;3.30;;;;;;;29.09;19.62;94685.41;5055925;28;20345;-55
2021/09/11 00:54:00;;;;;;;5.10;3.55;;;;;;;29.20;19.28;94691.50;5055121;28;20049;-53
2021/09/11 00:56:30;;;;;;;7.07;3.47;;;;;;;29.23;19.35;94689.94;5056082;28;20041;-58
2021/09/11 00:58:57;;;;;;;5.25;3.30;;;;;;;29.09;19.70;94696.19;5057707;28;20071;-59
2021/09/11 01:01:24;;;;;;;4.85;3.30;;;;;;;29.03;19.63;94695.06;5056782;28;20049;-58
2021/09/11 01:03:52;;;;;;;4.57;3.47;;;;;;;29.16;19.79;94693.44;5056358;28;20048;-54
2021/09/11 01:06:19;;;;;;;4.95;3.33;;;;;;;29.04;19.54;94693.91;5056713;28;20049;-55
2021/09/11 01:08:47;;;;;;;4.40;3.08;;;;;;;28.99;19.47;94697.03;5057154;28;20053;-54
2021/09/11 01:11:14;;;;;;;4.00;3.35;;;;;;;29.05;19.63;94690.06;5055922;28;20094;-52
2021/09/11 01:13:41;;;;;;;4.10;3.08;;;;;;;28.89;19.79;94697.84;5056242;28;20052;-54
2021/09/11 01:16:09;;;;;;;3.95;3.15;;;;;;;28.89;20.06;94703.25;5055981;28;20068;-55
2021/09/11 01:18:36;;;;;;;4.18;2.90;;;;;;;28.91;19.73;94700.94;5056774;28;20083;-53
2021/09/11 01:21:04;;;;;;;3.78;3.00;;;;;;;29.15;19.21;94705.38;5056554;28;20053;-53
2021/09/11 01:23:33;;;;;;;3.95;2.92;;;;;;;29.16;19.13;94707.66;5055985;28;20040;-55
2021/09/11 01:26:00;;;;;;;6.47;3.05;;;;;;;29.18;19.61;94701.88;5056559;28;20052;-53
2021/09/11 01:28:29;;;;;;;5.72;2.88;;;;;;;29.19;19.42;94700.72;5056220;28;20052;-57
2021/09/11 01:30:56;;;;;;;4.00;2.78;;;;;;;29.16;19.67;94707.66;5056419;28;20052;-52
2021/09/11 01:33:24;;;;;;;6.25;3.15;;;;;;;29.20;19.33;94702.25;5056156;28;20447;-55
2021/09/11 01:35:54;;;;;;;5.32;2.83;;;;;;;28.89;19.97;94701.34;5054804;28;20044;-53
2021/09/11 01:38:22;;;;;;;4.85;3.10;;;;;;;28.77;20.17;94705.22;5056067;28;20487;-55
2021/09/11 01:40:49;;;;;;;6.18;3.10;;;;;;;28.70;19.87;94707.19;5056331;28;20055;-54
2021/09/11 01:43:16;;;;;;;5.57;3.15;;;;;;;28.73;19.92;94701.78;5055791;28;20045;-53
2021/09/11 01:45:43;;;;;;;6.38;3.03;;;;;;;28.55;20.43;94695.75;5054318;28;20061;-53
2021/09/11 01:48:10;;;;;;;6.10;3.40;;;;;;;28.43;20.48;94698.88;5052034;28;20067;-54
2021/09/11 01:50:37;;;;;;;4.75;3.08;;;;;;;28.56;20.48;94697.28;5036039;28;20045;-54
2021/09/11 01:53:04;;;;;;;4.60;2.90;;;;;;;28.78;20.02;94709.44;5037104;28;20057;-57
2021/09/11 01:55:31;;;;;;;4.45;2.92;;;;;;;28.77;19.89;94710.59;5038385;28;20052;-55
2021/09/11 01:57:58;;;;;;;4.82;3.20;;;;;;;28.82;20.03;94702.09;5052964;28;20045;-53
2021/09/11 02:00:26;;;;;;;3.35;2.95;;;;;;;28.71;20.08;94693.34;5056022;28;20428;-53
2021/09/11 02:02:53;;;;;;;5.05;3.38;;;;;;;28.69;20.21;94698.34;5055842;28;20279;-54
2021/09/11 02:05:20;;;;;;;3.78;2.88;;;;;;;28.69;20.14;94700.28;5055518;28;20387;-54
2021/09/11 02:07:47;;;;;;;5.65;2.97;;;;;;;28.40;20.75;94694.31;5055228;28;20060;-55
2021/09/11 02:10:15;;;;;;;4.93;2.90;;;;;;;28.61;20.20;94694.16;5055494;28;20045;-55
2021/09/11 02:12:42;;;;;;;5.07;3.40;;;;;;;28.50;20.12;94685.41;5055718;28;20398;-55
2021/09/11 02:15:10;;;;;;;3.80;3.00;;;;;;;28.50;20.38;94688.09;5054816;28;20052;-55
2021/09/11 02:17:38;;;;;;;3.90;2.88;;;;;;;28.51;20.11;94689.63;5054651;28;20045;-54
2021/09/11 02:20:06;;;;;;;4.03;2.97;;;;;;;28.51;20.09;94676.94;5055784;28;20052;-52
2021/09/11 02:22:33;;;;;;;5.13;3.10;;;;;;;28.67;20.06;94683.78;5054488;28;20049;-54
2021/09/11 02:25:01;;;;;;;5.03;3.00;;;;;;;28.42;20.55;94681.22;5055064;28;20044;-53
2021/09/11 02:27:28;;;;;;;4.97;3.30;;;;;;;28.47;20.67;94678.88;5055706;28;20052;-53
2021/09/11 02:29:56;;;;;;;5.22;2.72;;;;;;;28.58;20.37;94684.19;5055386;28;20048;-54
2021/09/11 02:32:23;;;;;;;5.07;3.28;;;;;;;28.61;20.57;94688.78;5055186;28;20041;-57
2021/09/11 02:34:50;;;;;;;4.47;3.00;;;;;;;28.68;20.32;94683.38;5054929;28;20116;-57
2021/09/11 02:37:17;;;;;;;4.47;3.08;;;;;;;28.71;19.73;94687.97;5055011;28;20049;-57
2021/09/11 02:39:44;;;;;;;4.00;3.17;;;;;;;28.69;20.19;94679.53;5054086;28;20056;-53
2021/09/11 02:42:12;;;;;;;4.63;3.15;;;;;;;28.57;20.42;94679.97;5054906;28;20049;-55
2021/09/11 02:44:39;;;;;;;4.18;3.03;;;;;;;28.46;20.52;94682.75;5055215;28;20045;-56
2021/09/11 02:47:06;;;;;;;4.38;3.25;;;;;;;28.45;20.58;94677.75;5054604;28;20045;-56
2021/09/11 02:49:33;;;;;;;5.03;3.10;;;;;;;28.25;20.99;94675.53;5054747;28;20063;-55
2021/09/11 02:52:01;;;;;;;4.95;3.20;;;;;;;28.36;20.44;94672.03;5054833;28;20432;-57
2021/09/11 02:54:28;;;;;;;5.75;3.30;;;;;;;28.43;20.61;94672.00;5054533;28;20052;-60
2021/09/11 02:56:55;;;;;;;4.78;3.30;;;;;;;28.47;20.38;94675.44;5055355;28;20060;-57
2021/09/11 02:59:22;;;;;;;4.88;3.05;;;;;;;28.25;20.70;94678.22;5054769;28;20403;-56
2021/09/11 03:01:49;;;;;;;6.50;3.42;;;;;;;28.29;20.69;94680.91;5054604;28;20494;-56
2021/09/11 03:04:16;;;;;;;5.50;3.58;;;;;;;28.25;20.55;94678.22;5055034;28;20475;-55
2021/09/11 03:06:43;;;;;;;8.77;3.60;;;;;;;28.25;20.83;94680.16;5054367;28;20052;-54
2021/09/11 03:09:10;;;;;;;8.73;3.83;;;;;;;28.34;20.88;94685.09;5054537;28;20052;-55
2021/09/11 03:11:37;;;;;;;5.82;3.50;;;;;;;28.16;20.80;94685.94;5053342;28;20037;-53
2021/09/11 03:14:04;;;;;;;5.85;3.38;;;;;;;28.12;20.90;94689.78;5053834;28;20060;-57
2021/09/11 03:16:31;;;;;;;5.45;3.40;;;;;;;28.04;21.13;94689.03;5054347;28;20061;-53
2021/09/11 03:18:59;;;;;;;8.80;3.33;;;;;;;28.01;21.26;94695.19;5054578;28;20071;-53
2021/09/11 03:21:26;;;;;;;6.70;4.25;;;;;;;28.04;21.04;94689.03;5054340;28;20056;-53
2021/09/11 03:23:53;;;;;;;8.75;3.80;;;;;;;27.97;21.25;94691.75;5054247;28;20345;-54
2021/09/11 03:26:21;;;;;;;6.40;3.70;;;;;;;28.11;20.93;94697.09;5052966;28;20060;-55
2021/09/11 03:28:48;;;;;;;6.60;3.92;;;;;;;28.08;21.04;94695.16;5054325;28;20444;-52
2021/09/11 03:31:15;;;;;;;7.28;5.32;;;;;;;28.13;20.94;94692.09;5054535;28;20479;-52
2021/09/11 03:33:42;;;;;;;7.60;5.13;;;;;;;28.16;20.67;94688.63;5054117;28;20056;-55
2021/09/11 03:36:09;;;;;;;7.38;5.38;;;;;;;28.12;20.84;94700.53;5054386;28;20044;-55
2021/09/11 03:38:36;;;;;;;10.07;7.95;;;;;;;28.03;20.64;94703.63;5054011;28;20049;-52
2021/09/11 03:41:03;;;;;;;9.48;8.27;;;;;;;28.12;20.72;94706.69;5054152;28;20057;-54
2021/09/11 03:43:30;;;;;;;9.45;7.72;;;;;;;28.40;20.42;94705.06;5054040;28;20059;-54
2021/09/11 03:45:57;;;;;;;12.15;7.68;;;;;;;28.19;20.66;94706.66;5053723;28;20360;-52
2021/09/11 03:48:24;;;;;;;9.25;6.43;;;;;;;28.00;20.84;94699.03;5053889;28;20072;-56
2021/09/11 03:50:51;;;;;;;10.55;7.80;;;;;;;28.09;20.70;94707.44;5054308;28;20053;-52
2021/09/11 03:53:18;;;;;;;11.05;8.23;;;;;;;28.03;20.88;94709.00;5054233;28;20060;-52
2021/09/11 03:55:45;;;;;;;11.55;8.60;;;;;;;28.07;20.82;94709.75;5053018;28;20048;-53
2021/09/11 03:58:14;;;;;;;9.60;8.30;;;;;;;28.02;20.84;94699.41;5053701;28;20057;-58
2021/09/11 04:00:41;;;;;;;10.00;8.63;;;;;;;27.95;20.99;94702.13;5054181;28;20082;-53
2021/09/11 04:03:08;;;;;;;10.25;7.82;;;;;;;28.10;20.93;94703.59;5053139;28;20060;-53
2021/09/11 04:05:35;;;;;;;8.95;7.25;;;;;;;28.24;20.50;94703.56;5053539;28;20056;-53
2021/09/11 04:08:02;;;;;;;12.70;7.32;;;;;;;28.17;20.79;94710.88;5053691;28;20037;-53
2021/09/11 04:10:30;;;;;;;11.82;7.65;;;;;;;28.28;20.41;94708.16;5053911;28;20052;-54
2021/09/11 04:12:57;;;;;;;8.90;6.68;;;;;;;28.38;20.17;94707.38;5054143;28;20049;-53
2021/09/11 04:15:24;;;;;;;10.00;7.40;;;;;;;28.19;20.72;94706.66;5053131;28;20482;-54
2021/09/11 04:17:51;;;;;;;9.27;7.35;;;;;;;28.27;20.55;94704.72;5052451;28;20053;-53
2021/09/11 04:20:18;;;;;;;10.43;6.80;;;;;;;28.03;21.16;94702.84;5056723;28;20051;-55
2021/09/11 04:22:45;;;;;;;9.82;6.80;;;;;;;27.94;21.38;94705.97;5057658;28;20056;-53
2021/09/11 04:25:12;;;;;;;11.32;6.68;;;;;;;27.85;21.07;94700.25;5057265;28;20049;-54
2021/09/11 04:27:39;;;;;;;11.13;6.72;;;;;;;27.98;21.23;94704.03;5057073;28;20059;-54
2021/09/11 04:30:07;;;;;;;11.25;6.45;;;;;;;28.03;21.12;94709.00;5038614;28;20080;-56
2021/09/11 04:32:34;;;;;;;8.95;6.70;;;;;;;27.88;21.30;94702.16;5037648;28;20052;-54
2021/09/11 04:35:01;;;;;;;7.60;6.20;;;;;;;27.88;21.62;94713.66;5049083;28;20470;-54
2021/09/11 04:37:29;;;;;;;8.63;6.03;;;;;;;27.94;21.74;94714.03;5057652;28;20053;-59
2021/09/11 04:39:56;;;;;;;9.88;6.38;;;;;;;28.12;21.29;94714.75;5057357;28;20360;-58
2021/09/11 04:42:23;;;;;;;10.48;6.25;;;;;;;28.05;21.23;94705.91;5057261;28;20491;-55
2021/09/11 04:44:50;;;;;;;9.35;5.95;;;;;;;28.13;21.21;94718.97;5056464;28;20045;-57
2021/09/11 04:47:17;;;;;;;8.18;5.60;;;;;;;28.40;21.14;94715.81;5051206;28;20060;-52
2021/09/11 04:49:44;;;;;;;6.95;5.45;;;;;;;28.57;21.24;94704.19;5037266;28;20045;-58
2021/09/11 04:52:11;;;;;;;9.55;6.00;;;;;;;28.62;21.23;94716.44;5037183;28;20049;-57
2021/09/11 04:54:38;;;;;;;9.55;5.50;;;;;;;28.64;21.21;94704.16;5045216;28;20048;-58
2021/09/11 04:57:06;;;;;;;9.13;5.40;;;;;;;28.91;20.61;94711.72;5052687;28;20049;-57
2021/09/11 04:59:33;;;;;;;9.32;4.78;;;;;;;29.02;20.72;94718.53;5036903;28;20049;-55
2021/09/11 05:02:00;;;;;;;8.18;5.25;;;;;;;29.25;20.83;94714.53;5037052;28;20053;-56
2021/09/11 05:04:27;;;;;;;9.25;4.72;;;;;;;29.21;20.94;94714.56;5042788;28;20049;-58
2021/09/11 05:06:55;;;;;;;5.82;4.90;;;;;;;29.60;20.48;94710.78;5056750;28;20049;-57
2021/09/11 05:09:23;;;;;;;6.43;4.75;;;;;;;29.47;20.68;94715.91;5039254;28;20350;-56
2021/09/11 05:11:50;;;;;;;5.97;4.25;;;;;;;29.66;19.76;94706.47;5037471;28;20044;-56
2021/09/11 05:14:18;;;;;;;6.93;4.32;;;;;;;29.87;19.43;94711.66;5040412;28;20963;-54
2021/09/11 05:16:45;;;;;;;8.68;4.97;;;;;;;29.68;19.76;94715.72;5056276;28;20076;-54
2021/09/11 05:19:13;;;;;;;6.25;4.80;;;;;;;30.11;19.63;94709.13;5057381;28;20048;-54
2021/09/11 05:21:40;;;;;;;11.77;6.00;;;;;;;29.89;19.74;94703.91;5057091;28;20052;-54
2021/09/11 05:24:07;;;;;;;10.95;5.63;;;;;;;30.27;19.23;94712.00;5056645;28;20440;-53
2021/09/11 05:26:34;;;;;;;9.00;5.30;;;;;;;30.43;18.79;94709.47;5038364;28;20053;-57
2021/09/11 05:29:02;;;;;;;8.85;5.55;;;;;;;30.42;19.32;94718.75;5056462;28;20056;-54
2021/09/11 05:31:29;;;;;;;12.90;5.93;;;;;;;30.59;18.80;94727.78;5056200;28;20052;-54
2021/09/11 05:33:56;;;;;;;8.98;5.72;;;;;;;30.67;18.95;94719.22;5056222;28;20060;-56
2021/09/11 05:36:23;;;;;;;7.60;5.50;;;;;;;30.99;18.48;94718.00;5056369;28;20379;-55
2021/09/11 05:38:50;;;;;;;8.93;5.57;;;;;;;30.61;18.44;94714.69;5055912;28;20440;-56
2021/09/11 05:41:17;;;;;;;10.13;5.45;;;;;;;30.83;18.74;94715.91;5055947;28;20047;-55
2021/09/11 05:43:44;;;;;;;6.60;5.20;;;;;;;30.96;18.48;94724.19;5051172;28;20049;-55
2021/09/11 05:46:11;;;;;;;11.18;5.10;;;;;;;31.24;18.28;94723.81;5054312;28;20045;-55
2021/09/11 05:48:38;;;;;;;6.28;4.72;;;;;;;31.27;17.84;94712.19;5055729;28;20475;-54
2021/09/11 05:51:05;;;;;;;7.00;5.00;;;;;;;30.86;18.35;94714.34;5056079;28;20045;-56
2021/09/11 05:53:32;;;;;;;9.35;5.45;;;;;;;30.93;18.13;94717.69;5055786;28;20052;-54
2021/09/11 05:56:00;;;;;;;9.57;5.38;;;;;;;31.01;18.15;94706.81;5054640;28;20470;-55
2021/09/11 05:58:27;;;;;;;8.45;4.53;;;;;;;31.24;18.03;94710.31;5055618;28;20052;-55
2021/09/11 06:00:54;;;;;;;10.93;4.55;;;;;;;30.85;18.18;94712.81;5055513;28;20053;-55
2021/09/11 06:03:21;;;;;;;9.07;4.55;;;;;;;31.01;17.95;94710.25;5055630;28;20384;-53
2021/09/11 06:05:48;;;;;;;9.30;4.50;;;;;;;30.88;18.31;94707.34;5045178;28;20060;-56
2021/09/11 06:08:16;;;;;;;7.32;3.63;;;;;;;31.33;17.68;94704.38;5038243;28;20352;-54
2021/09/11 06:10:43;;;;;;;6.43;3.90;;;;;;;31.45;17.62;94706.47;5038298;28;20049;-56
2021/09/11 06:13:10;;;;;;;5.80;3.45;;;;;;;31.46;17.71;94707.25;5035625;28;20045;-57
2021/09/11 06:15:37;;;;;;;8.45;3.38;;;;;;;31.71;17.46;94713.00;5048213;28;20045;-53
2021/09/11 06:18:04;;;;;;;5.55;3.60;;;;;;;31.48;17.48;94704.88;5054846;28;20049;-53
2021/09/11 06:20:31;;;;;;;6.10;3.58;;;;;;;31.73;17.09;94707.19;5055443;28;20045;-56
2021/09/11 06:22:58;;;;;;;5.05;3.15;;;;;;;32.27;16.99;94709.66;5050448;28;20057;-55
2021/09/11 06:25:25;;;;;;;6.90;3.25;;;;;;;32.01;17.22;94697.78;5046643;28;20053;-54
2021/09/11 06:27:55;;;;;;;7.38;3.40;;;;;;;32.29;16.81;94710.78;5054875;28;20068;-58
2021/09/11 06:30:23;;;;;;;6.20;3.15;;;;;;;33.06;16.40;94704.13;5055300;28;20045;-57
2021/09/11 06:32:51;;;;;;;5.22;3.10;;;;;;;32.56;16.42;94704.44;5055171;28;20060;-57
2021/09/11 06:35:18;;;;;;;5.55;3.20;;;;;;;33.37;15.66;94712.69;5054733;28;20048;-56
2021/09/11 06:37:45;;;;;;;6.35;3.17;;;;;;;33.28;16.14;94704.34;5041992;28;20053;-56
2021/09/11 06:40:13;;;;;;;5.97;3.33;;;;;;;33.07;16.02;94706.41;5055181;28;20045;-55
2021/09/11 06:42:40;;;;;;;5.65;3.00;;;;;;;33.49;16.14;94712.00;5054403;28;20661;-61
2021/09/11 06:45:08;;;;;;;4.80;3.67;;;;;;;33.85;15.76;94706.47;5054189;28;20045;-62
2021/09/11 06:47:35;;;;;;;8.02;3.90;;;;;;;33.81;16.17;94713.13;5049912;28;20444;-59
2021/09/11 06:50:02;;;;;;;7.03;3.60;;;;;;;34.06;15.76;94709.78;5054982;28;20079;-61
2021/09/11 06:52:29;;;;;;;5.90;3.65;;;;;;;33.42;16.07;94704.81;5054953;28;20049;-57
2021/09/11 06:54:56;;;;;;;6.82;4.03;;;;;;;33.04;16.09;94711.88;5054670;28;20479;-56
2021/09/11 06:57:23;;;;;;;8.32;4.00;;;;;;;33.67;15.98;94698.00;5054455;28;20053;-57
2021/09/11 06:59:51;;;;;;;5.60;3.70;;;;;;;34.23;15.42;94700.41;5053851;28;20045;-59
2021/09/11 07:02:18;;;;;;;4.55;3.55;;;;;;;34.25;15.19;94698.00;5054921;28;20048;-59
2021/09/11 07:04:45;;;;;;;5.82;3.70;;;;;;;34.16;15.31;94701.38;5039514;28;20456;-56
2021/09/11 07:07:12;;;;;;;7.43;3.75;;;;;;;34.71;15.20;94704.84;5054499;28;20061;-63
2021/09/11 07:09:39;;;;;;;5.78;3.83;;;;;;;34.78;15.31;94691.03;5054561;28;20045;-63
2021/09/11 07:12:06;;;;;;;5.35;3.38;;;;;;;35.59;14.38;94695.09;5054688;28;20056;-61
2021/09/11 07:14:33;;;;;;;5.30;3.72;;;;;;;35.82;14.53;94683.06;5052028;28;20380;-58
2021/09/11 07:17:01;;;;;;;4.85;3.88;;;;;;;35.83;13.73;94695.50;5034405;28;20763;-55
2021/09/11 07:19:28;;;;;;;6.40;3.45;;;;;;;35.83;13.86;94696.25;5054220;28;20387;-56
2021/09/11 07:21:56;;;;;;;4.47;3.45;;;;;;;35.93;14.04;94688.94;5054498;28;20494;-57
2021/09/11 07:24:23;;;;;;;8.35;3.45;;;;;;;36.52;13.58;94695.38;5054547;28;20056;-58
2021/09/11 07:26:51;;;;;;;4.32;3.10;;;;;;;36.63;13.67;94690.28;5054675;28;20325;-58
2021/09/11 07:29:19;;;;;;;5.00;3.30;;;;;;;36.86;13.40;94691.00;5054373;28;20052;-55
2021/09/11 07:31:46;;;;;;;6.90;3.20;;;;;;;37.12;13.33;94692.31;5052005;28;20053;-56
2021/09/11 07:34:13;;;;;;;4.50;3.13;;;;;;;37.38;13.03;94681.19;5034488;28;20053;-56
2021/09/11 07:36:41;;;;;;;4.20;2.75;;;;;;;37.30;12.76;94680.72;5054453;28;20044;-57
2021/09/11 07:39:08;;;;;;;4.43;3.40;;;;;;;37.47;12.76;94679.22;5053967;28;20076;-55
2021/09/11 07:41:35;;;;;;;4.95;3.30;;;;;;;37.89;12.34;94679.41;5054896;28;20049;-56
2021/09/11 07:44:02;;;;;;;3.88;2.95;;;;;;;38.23;12.88;94677.59;5053800;28;20076;-55
2021/09/11 07:46:29;;;;;;;5.97;3.05;;;;;;;38.35;12.33;94684.84;5053940;28;20439;-59
2021/09/11 07:48:56;;;;;;;5.38;2.80;;;;;;;38.61;12.11;94668.09;5047751;28;20064;-55
2021/09/11 07:51:23;;;;;;;4.07;2.80;;;;;;;38.80;12.09;94680.50;5034655;28;20050;-57
2021/09/11 07:53:50;;;;;;;5.40;3.30;;;;;;;38.77;12.27;94671.22;5035926;28;20338;-56
2021/09/11 07:56:19;;;;;;;6.00;3.22;;;;;;;38.25;12.04;94675.16;5053713;28;20056;-58
2021/09/11 07:58:47;;;;;;;5.93;2.90;;;;;;;37.56;12.82;94673.03;5058532;28;20064;-59
2021/09/11 08:01:14;;;;;;;5.00;3.15;;;;;;;36.83;13.43;94664.69;5054965;28;20079;-56
2021/09/11 08:03:42;;;;;;;5.75;2.90;;;;;;;36.83;13.41;94670.13;5038470;28;20479;-60
2021/09/11 08:06:09;;;;;;;5.50;2.95;;;;;;;36.97;13.48;94669.56;5052617;28;20656;-59
2021/09/11 08:08:37;;;;;;;6.90;2.85;;;;;;;36.98;13.12;94666.41;5057560;28;20045;-54
2021/09/11 08:11:06;;;;;;;6.07;2.83;;;;;;;37.02;13.41;94666.25;5058472;28;20053;-54
2021/09/11 08:13:34;;;;;;;7.55;2.83;;;;;;;37.11;13.04;94663.53;5057900;28;20041;-55
2021/09/11 08:16:01;;;;;;;3.65;2.28;;;;;;;37.23;12.91;94653.75;5056877;28;20063;-56
2021/09/11 08:18:28;;;;;;;7.68;2.63;;;;;;;37.22;13.14;94654.94;5057449;28;20097;-55
2021/09/11 08:20:55;;;;;;;7.45;2.90;;;;;;;37.05;12.75;94649.00;5057820;28;20069;-58
2021/09/11 08:23:22;;;;;;;4.55;2.65;;;;;;;37.04;13.22;94658.38;5057658;28;20479;-57
2021/09/11 08:25:50;;;;;;;4.50;2.75;;;;;;;37.06;12.95;94655.97;5057384;28;20487;-60
2021/09/11 08:28:18;;;;;;;7.47;2.67;;;;;;;37.29;12.82;94650.00;5057932;28;20467;-57
2021/09/11 08:30:45;;;;;;;4.03;2.58;;;;;;;37.37;13.00;94646.97;5057499;28;20052;-59
2021/09/11 08:33:14;;;;;;;4.30;2.50;;;;;;;37.59;12.59;94653.03;5057540;28;20047;-56
2021/09/11 08:35:42;;;;;;;3.88;3.08;;;;;;;37.53;12.72;94644.72;5050838;28;20053;-58
2021/09/11 08:38:10;;;;;;;7.60;3.28;;;;;;;37.81;12.40;94645.50;5056958;28;20044;-58
2021/09/11 08:40:37;;;;;;;5.72;2.70;;;;;;;37.44;13.09;94641.22;5057345;28;20478;-58
2021/09/11 08:43:05;;;;;;;5.75;2.80;;;;;;;37.85;12.52;94637.91;5057193;28;20068;-58
2021/09/11 08:45:32;;;;;;;6.32;2.78;;;;;;;37.81;12.16;94648.22;5056698;28;20057;-60
2021/09/11 08:48:00;;;;;;;6.28;2.95;;;;;;;37.89;12.10;94643.97;5056849;28;20056;-56
2021/09/11 08:50:29;;;;;;;9.20;3.25;;;;;;;38.00;11.73;94642.72;5057281;28;20045;-53
2021/09/11 08:52:57;;;;;;;3.42;2.80;;;;;;;38.12;11.64;94644.53;5057149;28;20045;-55
2021/09/11 08:55:24;;;;;;;7.57;2.88;;;;;;;38.27;12.37;94645.44;5055833;28;20049;-54
2021/09/11 08:57:57;;;;;;;5.90;3.45;;;;;;;38.24;12.00;94629.97;5056628;28;20330;-60
2021/09/11 09:00:44;;;;;;;7.20;2.80;;;;;;;38.43;11.43;94631.44;5057638;28;20064;-57
2021/09/11 09:03:34;;;;;;;6.05;2.88;;;;;;;38.47;11.31;94632.03;5057454;28;20060;-54
2021/09/11 09:06:28;;;;;;;7.30;2.97;;;;;;;38.49;10.92;94628.81;5056090;28;20072;-55
2021/09/11 09:09:13;;;;;;;6.55;3.22;;;;;;;38.47;11.24;94628.53;5055924;28;20052;-59
2021/09/11 09:11:44;;;;;;;4.55;2.72;;;;;;;38.59;10.98;94626.84;5056799;28;20049;-60
2021/09/11 09:14:22;;;;;;;4.97;3.00;;;;;;;38.66;10.82;94621.06;5056417;28;20056;-56
2021/09/11 09:16:52;;;;;;;5.80;2.60;;;;;;;38.63;10.87;94627.44;5056486;28;20049;-56
2021/09/11 09:19:23;;;;;;;4.20;2.22;;;;;;;38.58;10.82;94619.88;5056269;28;20436;-63
2021/09/11 09:21:53;;;;;;;30.85;27.42;;;;;;;38.71;10.56;94623.16;5057286;28;20041;-64
2021/09/11 09:24:31;;;;;;;11.65;7.35;;;;;;;38.65;10.59;94614.09;5056484;28;20052;-62
2021/09/11 09:27:02;;;;;;;5.57;4.80;;;;;;;38.61;10.71;94613.47;5056170;28;20048;-58
2021/09/11 09:29:29;;;;;;;7.95;4.25;;;;;;;38.51;10.55;94610.75;5050697;28;20041;-57
2021/09/11 09:31:59;;;;;;;4.47;3.33;;;;;;;38.74;10.20;94603.84;5036600;28;20076;-59
2021/09/11 09:34:30;;;;;;;4.70;3.92;;;;;;;38.81;10.23;94605.50;5035954;28;20041;-61
2021/09/11 09:36:59;;;;;;;4.75;3.60;;;;;;;38.64;10.31;94604.38;5054158;28;20057;-61
2021/09/11 09:39:27;;;;;;;4.50;3.40;;;;;;;38.47;10.35;94606.69;5056039;28;20041;-57
2021/09/11 09:42:01;;;;;;;4.22;2.85;;;;;;;38.55;10.35;94603.19;5056310;28;20455;-57
2021/09/11 09:44:28;;;;;;;4.47;3.10;;;;;;;38.72;10.45;94603.56;5055659;28;20059;-59
2021/09/11 09:46:55;;;;;;;4.82;3.25;;;;;;;39.05;10.04;94600.81;5055954;28;20063;-57
2021/09/11 09:49:24;;;;;;;4.35;2.72;;;;;;;38.91;9.91;94590.56;5056674;28;20048;-56
2021/09/11 09:51:51;;;;;;;4.43;2.50;;;;;;;38.88;10.22;94596.22;5056814;28;20055;-56
2021/09/11 09:54:19;;;;;;;4.40;2.72;;;;;;;38.78;10.12;94584.59;5055899;28;20060;-57
2021/09/11 09:56:46;;;;;;;6.05;2.70;;;;;;;38.66;9.58;94589.03;5056185;28;20045;-57
2021/09/11 09:59:14;;;;;;;3.88;2.67;;;;;;;38.81;10.11;94586.41;5055644;28;20436;-56
2021/09/11 10:01:41;;;;;;;4.03;2.65;;;;;;;38.81;9.94;94591.84;5054845;28;20075;-58
2021/09/11 10:04:20;;;;;;;4.03;2.80;;;;;;;38.71;10.23;94585.66;5054721;28;20045;-54
2021/09/11 10:07:01;;;;;;;4.30;2.55;;;;;;;38.97;10.27;94575.03;5055554;28;20048;-59
2021/09/11 10:09:27;;;;;;;;;;;;;;;38.59;10.08;94577.69;5055935;28;20072;-59
2021/09/11 10:11:55;;;;;;;4.75;2.58;;;;;;;38.60;10.19;94579.19;5054835;28;19917;-59
2021/09/11 10:14:30;;;;;;;3.97;2.50;;;;;;;38.90;9.74;94569.94;5053526;28;20059;-61
2021/09/11 10:17:02;;;;;;;6.28;2.40;;;;;;;39.09;9.67;94579.56;5054539;28;20060;-58
2021/09/11 10:19:32;;;;;;;3.67;2.70;;;;;;;39.08;9.74;94575.31;5055375;28;20057;-57
2021/09/11 10:22:25;;;;;;;5.18;2.47;;;;;;;39.16;9.58;94581.94;5054075;28;20040;-57
2021/09/11 10:25:03;;;;;;;4.40;2.55;;;;;;;39.22;9.30;94578.56;5055419;28;20052;-59
2021/09/11 10:27:42;;;;;;;3.75;2.30;;;;;;;39.08;9.53;94567.13;5055260;28;20051;-58
2021/09/11 10:30:14;;;;;;;3.75;2.10;;;;;;;38.84;9.68;94566.34;5055036;28;20356;-57
2021/09/11 10:32:48;;;;;;;4.80;2.42;;;;;;;39.08;9.72;94564.38;5055342;28;20436;-56
2021/09/11 10:35:22;;;;;;;4.00;1.95;;;;;;;39.33;9.56;94567.84;5055053;28;20059;-59
2021/09/11 10:37:52;;;;;;;5.82;2.90;;;;;;;39.34;9.35;94569.38;5054747;28;20075;-57
2021/09/11 10:40:37;;;;;;;3.25;2.47;;;;;;;39.03;9.55;94567.72;5055095;28;20048;-59
2021/09/11 10:43:29;;;;;;;4.50;2.35;;;;;;;38.75;9.39;94566.38;5055138;28;20380;-55
2021/09/11 10:46:08;;;;;;;4.38;2.40;;;;;;;39.13;9.11;94561.00;5054167;28;20077;-58
2021/09/11 10:48:45;;;;;;;6.28;2.45;;;;;;;38.66;9.33;94566.44;5053970;28;20371;-58
2021/09/11 10:51:28;;;;;;;4.00;2.60;;;;;;;39.19;9.17;94558.38;5054960;28;20363;-56
2021/09/11 10:54:04;;;;;;;19.50;17.40;;;;;;;39.06;9.31;94547.72;5054831;28;20044;-54
2021/09/11 10:56:34;;;;;;;7.97;4.47;;;;;;;39.03;8.79;94551.31;5056141;22;20052;-59
2021/09/11 11:02:14;;;;;;;3.13;2.63;;;;;;;39.17;8.16;94542.44;5015192;28;20061;-58
2021/09/11 11:04:50;;;;;;;4.47;2.25;;;;;;;39.09;8.61;94533.09;5007076;28;20054;-58
2021/09/11 11:07:17;;;;;;;4.90;2.40;;;;;;;39.02;8.85;94533.41;5015080;28;20046;-56
2021/09/11 11:09:48;;;;;;;3.88;2.05;;;;;;;38.80;8.91;94527.53;5014550;28;20056;-56
2021/09/11 11:12:37;;;;;;;3.17;2.38;;;;;;;38.99;8.37;94525.41;5015118;28;20050;-58
2021/09/11 11:15:15;;;;;;;4.32;2.13;;;;;;;39.10;8.83;94514.72;5015109;28;20049;-59
2021/09/11 11:17:45;;;;;;;5.80;2.30;;;;;;;39.12;8.38;94515.75;5014670;28;20057;-60
2021/09/11 11:20:13;;;;;;;2.80;2.15;;;;;;;38.86;8.46;94515.47;5014897;28;20060;-59
2021/09/11 11:22:42;;;;;;;4.10;2.15;;;;;;;38.24;8.40;94507.16;5014721;28;20045;-62
2021/09/11 11:25:28;;;;;;;2.55;2.00;;;;;;;38.86;8.50;94498.31;4999097;28;20061;-62
2021/09/11 11:27:56;;;;;;;4.18;2.10;;;;;;;38.87;8.81;94499.84;5006352;28;20053;-57
2021/09/11 11:30:24;;;;;;;4.70;2.03;;;;;;;38.61;8.78;94494.06;5014688;28;20065;-62
2021/09/11 11:32:51;;;;;;;2.75;2.08;;;;;;;38.71;8.60;94492.81;5013552;28;20038;-60
2021/09/11 11:35:18;;;;;;;3.33;1.90;;;;;;;38.73;8.84;94497.81;5014960;28;20042;-63
2021/09/11 11:37:45;;;;;;;5.20;2.20;;;;;;;38.90;8.11;94487.22;5013577;28;20356;-58
2021/09/11 11:40:14;;;;;;;2.85;1.92;;;;;;;38.84;8.07;94489.84;5014296;28;20050;-58
2021/09/11 11:42:44;;;;;;;3.80;1.83;;;;;;;38.63;8.28;94491.66;5014458;28;20045;-57
2021/09/11 11:45:16;;;;;;;2.67;2.10;;;;;;;38.64;8.02;94481.47;5014900;28;20053;-53